sensor_id;sensor_type;location;lat;lon;timestamp;P1;durP1;ratioP1;P2;durP2;ratioP2
6249;SDS011;3158;52.148;11.568;2023-02-15T00:04:14;23.23;;;11.88;;
6249;SDS011;3158;52.148;11.568;2023-02-15T00:09:15;27.65;;;11.57;;
6249;SDS011;3158;52.148;11.568;2023-02-15T00:14:20;28.52;;;11.63;;
6249;SDS011;3158;52.148;11.568;2023-02-15T00:19:22;23.45;;;10.25;;
6249;SDS011;3158;52.148;11.568;2023-02-15T00:24:23;20.33;;;10.10;;
6249;SDS011;3158;52.148;11.568;2023-02-15T00:29:24;28.52;;;10.93;;
6249;SDS011;3158;52.148;11.568;2023-02-15T00:34:26;24.55;;;10.60;;
6249;SDS011;3158;52.148;11.568;2023-02-15T00:39:27;23.27;;;10.38;;
6249;SDS011;3158;52.148;11.568;2023-02-15T00:44:29;22.23;;;11.10;;
6249;SDS011;3158;52.148;11.568;2023-02-15T00:49:30;25.92;;;12.25;;
6249;SDS011;3158;52.148;11.568;2023-02-15T00:54:31;22.63;;;10.13;;
6249;SDS011;3158;52.148;11.568;2023-02-15T00:59:32;28.52;;;11.20;;
6249;SDS011;3158;52.148;11.568;2023-02-15T01:04:33;28.98;;;12.32;;
6249;SDS011;3158;52.148;11.568;2023-02-15T01:09:34;23.90;;;11.38;;
6249;SDS011;3158;52.148;11.568;2023-02-15T01:14:37;23.30;;;11.95;;
6249;SDS011;3158;52.148;11.568;2023-02-15T01:19:38;30.38;;;12.32;;
6249;SDS011;3158;52.148;11.568;2023-02-15T01:24:40;27.00;;;11.05;;
6249;SDS011;3158;52.148;11.568;2023-02-15T01:29:42;26.98;;;11.40;;
6249;SDS011;3158;52.148;11.568;2023-02-15T01:34:43;22.23;;;10.98;;
6249;SDS011;3158;52.148;11.568;2023-02-15T01:39:44;25.92;;;11.68;;
6249;SDS011;3158;52.148;11.568;2023-02-15T01:44:59;30.80;;;12.98;;
6249;SDS011;3158;52.148;11.568;2023-02-15T01:50:22;27.67;;;12.00;;
6249;SDS011;3158;52.148;11.568;2023-02-15T01:55:22;30.52;;;13.32;;
6249;SDS011;3158;52.148;11.568;2023-02-15T02:00:24;33.58;;;13.40;;
6249;SDS011;3158;52.148;11.568;2023-02-15T02:05:25;26.55;;;12.80;;
6249;SDS011;3158;52.148;11.568;2023-02-15T02:10:26;23.73;;;11.65;;
6249;SDS011;3158;52.148;11.568;2023-02-15T02:15:42;29.35;;;11.98;;
6249;SDS011;3158;52.148;11.568;2023-02-15T02:20:52;38.42;;;14.43;;
6249;SDS011;3158;52.148;11.568;2023-02-15T02:36:31;28.08;;;13.02;;
6249;SDS011;3158;52.148;11.568;2023-02-15T02:41:37;32.08;;;13.23;;
6249;SDS011;3158;52.148;11.568;2023-02-15T02:47:15;29.88;;;13.73;;
6249;SDS011;3158;52.148;11.568;2023-02-15T02:52:33;36.03;;;13.18;;
6249;SDS011;3158;52.148;11.568;2023-02-15T02:57:29;26.85;;;13.63;;
6249;SDS011;3158;52.148;11.568;2023-02-15T03:02:32;31.58;;;13.95;;
6249;SDS011;3158;52.148;11.568;2023-02-15T03:07:37;35.25;;;13.93;;
6249;SDS011;3158;52.148;11.568;2023-02-15T03:12:40;36.97;;;14.60;;
6249;SDS011;3158;52.148;11.568;2023-02-15T03:17:43;35.50;;;13.95;;
6249;SDS011;3158;52.148;11.568;2023-02-15T03:22:46;42.72;;;15.27;;
6249;SDS011;3158;52.148;11.568;2023-02-15T03:27:49;43.30;;;14.65;;
6249;SDS011;3158;52.148;11.568;2023-02-15T03:32:54;43.65;;;13.50;;
6249;SDS011;3158;52.148;11.568;2023-02-15T03:38:00;29.05;;;13.00;;
6249;SDS011;3158;52.148;11.568;2023-02-15T03:43:06;30.02;;;14.20;;
6249;SDS011;3158;52.148;11.568;2023-02-15T03:48:09;34.67;;;12.20;;
6249;SDS011;3158;52.148;11.568;2023-02-15T03:53:11;30.65;;;12.00;;
6249;SDS011;3158;52.148;11.568;2023-02-15T03:58:14;32.78;;;11.95;;
6249;SDS011;3158;52.148;11.568;2023-02-15T04:03:56;28.38;;;12.45;;
6249;SDS011;3158;52.148;11.568;2023-02-15T04:08:58;23.70;;;12.00;;
6249;SDS011;3158;52.148;11.568;2023-02-15T04:14:17;30.95;;;12.52;;
6249;SDS011;3158;52.148;11.568;2023-02-15T04:19:37;27.20;;;11.75;;
6249;SDS011;3158;52.148;11.568;2023-02-15T04:24:57;35.90;;;12.40;;
6249;SDS011;3158;52.148;11.568;2023-02-15T04:30:11;31.67;;;11.70;;
6249;SDS011;3158;52.148;11.568;2023-02-15T04:35:13;32.42;;;12.88;;
6249;SDS011;3158;52.148;11.568;2023-02-15T04:40:15;30.67;;;11.68;;
6249;SDS011;3158;52.148;11.568;2023-02-15T04:45:16;36.28;;;14.73;;
6249;SDS011;3158;52.148;11.568;2023-02-15T04:50:18;39.05;;;16.42;;
6249;SDS011;3158;52.148;11.568;2023-02-15T04:55:19;38.78;;;14.50;;
6249;SDS011;3158;52.148;11.568;2023-02-15T05:00:20;47.25;;;16.17;;
6249;SDS011;3158;52.148;11.568;2023-02-15T05:05:21;39.20;;;14.48;;
6249;SDS011;3158;52.148;11.568;2023-02-15T05:10:22;42.53;;;15.52;;
6249;SDS011;3158;52.148;11.568;2023-02-15T05:15:23;34.15;;;15.27;;
6249;SDS011;3158;52.148;11.568;2023-02-15T05:20:24;41.03;;;15.77;;
6249;SDS011;3158;52.148;11.568;2023-02-15T05:25:25;39.13;;;14.90;;
6249;SDS011;3158;52.148;11.568;2023-02-15T05:30:49;50.15;;;15.90;;
6249;SDS011;3158;52.148;11.568;2023-02-15T05:35:50;55.25;;;14.88;;
6249;SDS011;3158;52.148;11.568;2023-02-15T05:40:52;45.80;;;16.20;;
6249;SDS011;3158;52.148;11.568;2023-02-15T05:45:53;40.50;;;15.65;;
6249;SDS011;3158;52.148;11.568;2023-02-15T05:51:08;60.53;;;17.15;;
6249;SDS011;3158;52.148;11.568;2023-02-15T05:56:09;49.22;;;14.45;;
6249;SDS011;3158;52.148;11.568;2023-02-15T06:01:11;41.97;;;15.35;;
6249;SDS011;3158;52.148;11.568;2023-02-15T06:06:13;30.20;;;14.30;;
6249;SDS011;3158;52.148;11.568;2023-02-15T06:11:15;49.77;;;14.40;;
6249;SDS011;3158;52.148;11.568;2023-02-15T06:16:16;44.42;;;12.65;;
6249;SDS011;3158;52.148;11.568;2023-02-15T06:21:17;70.22;;;16.67;;
6249;SDS011;3158;52.148;11.568;2023-02-15T06:26:18;43.67;;;12.70;;
6249;SDS011;3158;52.148;11.568;2023-02-15T06:31:19;51.35;;;12.90;;
6249;SDS011;3158;52.148;11.568;2023-02-15T06:36:20;36.17;;;13.68;;
6249;SDS011;3158;52.148;11.568;2023-02-15T06:41:21;44.00;;;13.45;;
6249;SDS011;3158;52.148;11.568;2023-02-15T06:46:22;34.88;;;13.20;;
6249;SDS011;3158;52.148;11.568;2023-02-15T06:51:24;36.97;;;11.70;;
6249;SDS011;3158;52.148;11.568;2023-02-15T06:56:25;40.78;;;12.80;;
6249;SDS011;3158;52.148;11.568;2023-02-15T07:01:26;40.58;;;12.75;;
6249;SDS011;3158;52.148;11.568;2023-02-15T07:06:30;35.67;;;11.93;;
6249;SDS011;3158;52.148;11.568;2023-02-15T07:11:31;36.08;;;13.38;;
6249;SDS011;3158;52.148;11.568;2023-02-15T07:16:51;35.55;;;13.68;;
6249;SDS011;3158;52.148;11.568;2023-02-15T07:21:52;51.95;;;13.13;;
6249;SDS011;3158;52.148;11.568;2023-02-15T07:27:20;41.33;;;11.23;;
6249;SDS011;3158;52.148;11.568;2023-02-15T07:32:29;17.65;;;8.52;;
6249;SDS011;3158;52.148;11.568;2023-02-15T07:37:30;43.15;;;9.65;;
6249;SDS011;3158;52.148;11.568;2023-02-15T07:42:31;25.52;;;9.65;;
6249;SDS011;3158;52.148;11.568;2023-02-15T07:47:32;20.13;;;9.85;;
6249;SDS011;3158;52.148;11.568;2023-02-15T07:52:33;27.15;;;11.10;;
6249;SDS011;3158;52.148;11.568;2023-02-15T07:57:35;28.08;;;9.13;;
6249;SDS011;3158;52.148;11.568;2023-02-15T08:02:36;21.25;;;9.90;;
6249;SDS011;3158;52.148;11.568;2023-02-15T08:07:37;18.98;;;10.02;;
6249;SDS011;3158;52.148;11.568;2023-02-15T08:12:38;24.55;;;11.18;;
6249;SDS011;3158;52.148;11.568;2023-02-15T08:17:39;23.13;;;10.20;;
6249;SDS011;3158;52.148;11.568;2023-02-15T08:22:40;24.58;;;11.60;;
6249;SDS011;3158;52.148;11.568;2023-02-15T08:27:41;17.30;;;9.13;;
6249;SDS011;3158;52.148;11.568;2023-02-15T08:32:42;20.83;;;10.88;;
6249;SDS011;3158;52.148;11.568;2023-02-15T08:37:44;25.90;;;10.57;;
6249;SDS011;3158;52.148;11.568;2023-02-15T08:42:45;28.83;;;10.48;;
6249;SDS011;3158;52.148;11.568;2023-02-15T08:47:46;18.02;;;10.82;;
6249;SDS011;3158;52.148;11.568;2023-02-15T08:52:47;23.75;;;10.32;;
6249;SDS011;3158;52.148;11.568;2023-02-15T08:57:48;18.40;;;10.18;;
6249;SDS011;3158;52.148;11.568;2023-02-15T09:02:49;26.50;;;10.30;;
6249;SDS011;3158;52.148;11.568;2023-02-15T09:07:50;23.08;;;9.35;;
6249;SDS011;3158;52.148;11.568;2023-02-15T09:12:52;14.53;;;8.87;;
6249;SDS011;3158;52.148;11.568;2023-02-15T09:17:53;18.33;;;7.97;;
6249;SDS011;3158;52.148;11.568;2023-02-15T09:22:54;21.05;;;9.48;;
6249;SDS011;3158;52.148;11.568;2023-02-15T09:27:55;19.35;;;9.45;;
6249;SDS011;3158;52.148;11.568;2023-02-15T09:32:56;21.55;;;9.90;;
6249;SDS011;3158;52.148;11.568;2023-02-15T09:37:57;26.88;;;10.20;;
6249;SDS011;3158;52.148;11.568;2023-02-15T09:43:02;32.00;;;13.65;;
6249;SDS011;3158;52.148;11.568;2023-02-15T10:09:48;33.35;;;13.82;;
6249;SDS011;3158;52.148;11.568;2023-02-15T10:30:22;33.10;;;13.60;;
6249;SDS011;3158;52.148;11.568;2023-02-15T10:40:50;43.67;;;16.25;;
6249;SDS011;3158;52.148;11.568;2023-02-15T10:46:01;34.08;;;14.77;;
6249;SDS011;3158;52.148;11.568;2023-02-15T10:51:05;36.78;;;14.85;;
6249;SDS011;3158;52.148;11.568;2023-02-15T10:56:12;33.97;;;14.93;;
6249;SDS011;3158;52.148;11.568;2023-02-15T11:01:17;25.55;;;12.95;;
6249;SDS011;3158;52.148;11.568;2023-02-15T11:06:21;18.95;;;11.23;;
6249;SDS011;3158;52.148;11.568;2023-02-15T11:11:24;17.88;;;11.00;;
6249;SDS011;3158;52.148;11.568;2023-02-15T11:16:28;18.92;;;11.48;;
6249;SDS011;3158;52.148;11.568;2023-02-15T11:21:39;19.00;;;11.50;;
6249;SDS011;3158;52.148;11.568;2023-02-15T11:26:45;19.95;;;12.43;;
6249;SDS011;3158;52.148;11.568;2023-02-15T11:31:53;14.52;;;10.50;;
6249;SDS011;3158;52.148;11.568;2023-02-15T11:36:55;14.77;;;9.55;;
6249;SDS011;3158;52.148;11.568;2023-02-15T11:42:00;13.05;;;9.98;;
6249;SDS011;3158;52.148;11.568;2023-02-15T11:47:02;12.43;;;8.77;;
6249;SDS011;3158;52.148;11.568;2023-02-15T11:52:07;11.32;;;8.98;;
6249;SDS011;3158;52.148;11.568;2023-02-15T11:57:15;12.63;;;8.52;;
6249;SDS011;3158;52.148;11.568;2023-02-15T12:02:20;10.50;;;8.23;;
6249;SDS011;3158;52.148;11.568;2023-02-15T12:12:27;9.70;;;8.38;;
6249;SDS011;3158;52.148;11.568;2023-02-15T12:17:29;8.75;;;7.60;;
6249;SDS011;3158;52.148;11.568;2023-02-15T12:22:32;13.55;;;7.57;;
6249;SDS011;3158;52.148;11.568;2023-02-15T12:27:34;8.73;;;7.88;;
6249;SDS011;3158;52.148;11.568;2023-02-15T12:32:50;15.27;;;8.57;;
6249;SDS011;3158;52.148;11.568;2023-02-15T12:37:57;10.20;;;8.65;;
6249;SDS011;3158;52.148;11.568;2023-02-15T12:43:01;10.00;;;8.77;;
6249;SDS011;3158;52.148;11.568;2023-02-15T12:53:23;12.00;;;8.85;;
6249;SDS011;3158;52.148;11.568;2023-02-15T12:58:31;10.75;;;9.32;;
6249;SDS011;3158;52.148;11.568;2023-02-15T13:03:32;11.77;;;9.57;;
6249;SDS011;3158;52.148;11.568;2023-02-15T13:08:35;13.43;;;9.70;;
6249;SDS011;3158;52.148;11.568;2023-02-15T13:13:50;12.48;;;9.60;;
6249;SDS011;3158;52.148;11.568;2023-02-15T13:18:52;10.75;;;9.13;;
6249;SDS011;3158;52.148;11.568;2023-02-15T13:23:56;10.85;;;8.70;;
6249;SDS011;3158;52.148;11.568;2023-02-15T13:28:59;9.38;;;8.20;;
6249;SDS011;3158;52.148;11.568;2023-02-15T13:34:16;13.50;;;7.35;;
6249;SDS011;3158;52.148;11.568;2023-02-15T13:49:47;6.63;;;5.97;;
6249;SDS011;3158;52.148;11.568;2023-02-15T13:59:57;6.45;;;5.85;;
6249;SDS011;3158;52.148;11.568;2023-02-15T14:05:15;6.07;;;5.47;;
6249;SDS011;3158;52.148;11.568;2023-02-15T14:25:58;10.25;;;5.35;;
6249;SDS011;3158;52.148;11.568;2023-02-15T14:31:01;5.20;;;4.70;;
6249;SDS011;3158;52.148;11.568;2023-02-15T14:36:04;6.10;;;4.90;;
6249;SDS011;3158;52.148;11.568;2023-02-15T14:41:08;5.63;;;5.13;;
6249;SDS011;3158;52.148;11.568;2023-02-15T14:46:14;6.35;;;5.70;;
6249;SDS011;3158;52.148;11.568;2023-02-15T14:56:37;6.45;;;5.80;;
6249;SDS011;3158;52.148;11.568;2023-02-15T15:01:39;12.90;;;6.68;;
6249;SDS011;3158;52.148;11.568;2023-02-15T15:06:44;9.55;;;6.45;;
6249;SDS011;3158;52.148;11.568;2023-02-15T15:11:51;7.22;;;6.40;;
6249;SDS011;3158;52.148;11.568;2023-02-15T15:16:53;6.68;;;5.97;;
6249;SDS011;3158;52.148;11.568;2023-02-15T15:21:55;7.93;;;6.43;;
6249;SDS011;3158;52.148;11.568;2023-02-15T15:32:16;7.65;;;5.85;;
6249;SDS011;3158;52.148;11.568;2023-02-15T15:42:48;7.82;;;6.18;;
6249;SDS011;3158;52.148;11.568;2023-02-15T15:47:54;8.68;;;6.80;;
6249;SDS011;3158;52.148;11.568;2023-02-15T15:53:00;8.07;;;6.35;;
6249;SDS011;3158;52.148;11.568;2023-02-15T15:58:03;7.65;;;6.90;;
6249;SDS011;3158;52.148;11.568;2023-02-15T16:03:05;9.70;;;7.80;;
6249;SDS011;3158;52.148;11.568;2023-02-15T16:08:06;9.75;;;7.47;;
6249;SDS011;3158;52.148;11.568;2023-02-15T16:13:11;12.20;;;8.30;;
6249;SDS011;3158;52.148;11.568;2023-02-15T16:18:14;14.68;;;9.18;;
6249;SDS011;3158;52.148;11.568;2023-02-15T16:23:22;21.20;;;11.07;;
6249;SDS011;3158;52.148;11.568;2023-02-15T16:28:26;21.73;;;12.48;;
6249;SDS011;3158;52.148;11.568;2023-02-15T16:33:34;19.33;;;10.82;;
6249;SDS011;3158;52.148;11.568;2023-02-15T16:43:44;22.52;;;12.73;;
6249;SDS011;3158;52.148;11.568;2023-02-15T16:48:48;23.92;;;12.38;;
6249;SDS011;3158;52.148;11.568;2023-02-15T16:53:52;24.40;;;12.90;;
6249;SDS011;3158;52.148;11.568;2023-02-15T16:58:54;22.08;;;11.07;;
6249;SDS011;3158;52.148;11.568;2023-02-15T17:04:11;22.40;;;11.57;;
6249;SDS011;3158;52.148;11.568;2023-02-15T17:09:14;30.95;;;15.23;;
6249;SDS011;3158;52.148;11.568;2023-02-15T17:14:19;29.35;;;15.18;;
6249;SDS011;3158;52.148;11.568;2023-02-15T17:19:25;33.60;;;16.90;;
6249;SDS011;3158;52.148;11.568;2023-02-15T17:24:31;36.58;;;15.52;;
6249;SDS011;3158;52.148;11.568;2023-02-15T17:29:40;31.10;;;15.20;;
6249;SDS011;3158;52.148;11.568;2023-02-15T17:34:44;26.38;;;14.02;;
6249;SDS011;3158;52.148;11.568;2023-02-15T17:39:46;29.73;;;15.55;;
6249;SDS011;3158;52.148;11.568;2023-02-15T17:44:47;26.40;;;14.75;;
6249;SDS011;3158;52.148;11.568;2023-02-15T17:49:49;28.20;;;14.23;;
6249;SDS011;3158;52.148;11.568;2023-02-15T17:54:52;27.98;;;14.98;;
6249;SDS011;3158;52.148;11.568;2023-02-15T18:00:13;33.85;;;15.60;;
6249;SDS011;3158;52.148;11.568;2023-02-15T18:05:33;27.23;;;14.63;;
6249;SDS011;3158;52.148;11.568;2023-02-15T18:10:53;28.45;;;14.00;;
6249;SDS011;3158;52.148;11.568;2023-02-15T18:16:14;34.50;;;16.05;;
6249;SDS011;3158;52.148;11.568;2023-02-15T18:21:16;31.08;;;15.40;;
6249;SDS011;3158;52.148;11.568;2023-02-15T18:26:23;26.23;;;14.50;;
6249;SDS011;3158;52.148;11.568;2023-02-15T18:31:24;27.27;;;13.73;;
6249;SDS011;3158;52.148;11.568;2023-02-15T18:36:27;31.02;;;14.00;;
6249;SDS011;3158;52.148;11.568;2023-02-15T18:41:28;29.48;;;14.55;;
6249;SDS011;3158;52.148;11.568;2023-02-15T18:46:29;33.33;;;17.50;;
6249;SDS011;3158;52.148;11.568;2023-02-15T18:51:30;38.25;;;17.15;;
6249;SDS011;3158;52.148;11.568;2023-02-15T18:56:34;38.08;;;16.27;;
6249;SDS011;3158;52.148;11.568;2023-02-15T19:01:35;37.40;;;16.17;;
6249;SDS011;3158;52.148;11.568;2023-02-15T19:06:37;29.35;;;13.07;;
6249;SDS011;3158;52.148;11.568;2023-02-15T19:11:39;27.38;;;12.68;;
6249;SDS011;3158;52.148;11.568;2023-02-15T19:16:41;22.67;;;11.30;;
6249;SDS011;3158;52.148;11.568;2023-02-15T19:21:42;23.15;;;10.55;;
6249;SDS011;3158;52.148;11.568;2023-02-15T19:26:43;21.15;;;10.63;;
6249;SDS011;3158;52.148;11.568;2023-02-15T19:31:45;20.15;;;10.05;;
6249;SDS011;3158;52.148;11.568;2023-02-15T19:36:46;24.33;;;9.68;;
6249;SDS011;3158;52.148;11.568;2023-02-15T19:41:49;23.73;;;10.57;;
6249;SDS011;3158;52.148;11.568;2023-02-15T19:46:50;21.60;;;10.27;;
6249;SDS011;3158;52.148;11.568;2023-02-15T19:51:51;14.48;;;8.73;;
6249;SDS011;3158;52.148;11.568;2023-02-15T19:56:53;19.55;;;9.60;;
6249;SDS011;3158;52.148;11.568;2023-02-15T20:01:54;25.13;;;11.10;;
6249;SDS011;3158;52.148;11.568;2023-02-15T20:06:56;22.00;;;10.70;;
6249;SDS011;3158;52.148;11.568;2023-02-15T20:11:59;23.00;;;11.80;;
6249;SDS011;3158;52.148;11.568;2023-02-15T20:17:00;26.48;;;12.15;;
6249;SDS011;3158;52.148;11.568;2023-02-15T20:22:01;19.80;;;10.32;;
6249;SDS011;3158;52.148;11.568;2023-02-15T20:27:02;17.40;;;10.45;;
6249;SDS011;3158;52.148;11.568;2023-02-15T20:32:03;24.40;;;11.13;;
6249;SDS011;3158;52.148;11.568;2023-02-15T20:37:04;21.33;;;11.27;;
6249;SDS011;3158;52.148;11.568;2023-02-15T20:42:07;23.27;;;11.52;;
6249;SDS011;3158;52.148;11.568;2023-02-15T20:47:09;23.73;;;10.65;;
6249;SDS011;3158;52.148;11.568;2023-02-15T20:52:16;21.45;;;11.55;;
6249;SDS011;3158;52.148;11.568;2023-02-15T20:57:18;19.48;;;10.88;;
6249;SDS011;3158;52.148;11.568;2023-02-15T21:02:20;27.42;;;11.10;;
6249;SDS011;3158;52.148;11.568;2023-02-15T21:07:24;24.88;;;11.48;;
6249;SDS011;3158;52.148;11.568;2023-02-15T21:12:25;22.88;;;11.38;;
6249;SDS011;3158;52.148;11.568;2023-02-15T21:17:26;28.75;;;12.68;;
6249;SDS011;3158;52.148;11.568;2023-02-15T21:22:27;27.92;;;11.77;;
6249;SDS011;3158;52.148;11.568;2023-02-15T21:27:28;20.70;;;9.82;;
6249;SDS011;3158;52.148;11.568;2023-02-15T21:32:29;13.57;;;8.73;;
6249;SDS011;3158;52.148;11.568;2023-02-15T21:37:31;19.63;;;8.80;;
6249;SDS011;3158;52.148;11.568;2023-02-15T21:42:33;22.20;;;9.45;;
6249;SDS011;3158;52.148;11.568;2023-02-15T21:47:53;21.63;;;9.38;;
6249;SDS011;3158;52.148;11.568;2023-02-15T21:52:54;15.48;;;8.82;;
6249;SDS011;3158;52.148;11.568;2023-02-15T21:57:55;17.17;;;9.20;;
6249;SDS011;3158;52.148;11.568;2023-02-15T22:02:57;17.08;;;8.95;;
6249;SDS011;3158;52.148;11.568;2023-02-15T22:08:00;21.60;;;9.25;;
6249;SDS011;3158;52.148;11.568;2023-02-15T22:13:01;16.02;;;8.85;;
6249;SDS011;3158;52.148;11.568;2023-02-15T22:18:03;20.90;;;8.88;;
6249;SDS011;3158;52.148;11.568;2023-02-15T22:23:04;18.50;;;9.15;;
6249;SDS011;3158;52.148;11.568;2023-02-15T22:28:10;22.17;;;10.07;;
6249;SDS011;3158;52.148;11.568;2023-02-15T22:33:19;14.40;;;8.27;;
6249;SDS011;3158;52.148;11.568;2023-02-15T22:38:22;15.35;;;9.25;;
6249;SDS011;3158;52.148;11.568;2023-02-15T22:43:29;19.25;;;9.20;;
6249;SDS011;3158;52.148;11.568;2023-02-15T22:48:30;17.73;;;8.85;;
6249;SDS011;3158;52.148;11.568;2023-02-15T22:53:32;21.40;;;8.63;;
6249;SDS011;3158;52.148;11.568;2023-02-15T22:58:33;19.45;;;9.18;;
6249;SDS011;3158;52.148;11.568;2023-02-15T23:03:34;16.75;;;9.18;;
6249;SDS011;3158;52.148;11.568;2023-02-15T23:08:35;20.60;;;10.68;;
6249;SDS011;3158;52.148;11.568;2023-02-15T23:13:36;15.77;;;9.00;;
6249;SDS011;3158;52.148;11.568;2023-02-15T23:18:38;19.20;;;9.55;;
6249;SDS011;3158;52.148;11.568;2023-02-15T23:23:40;14.50;;;8.70;;
6249;SDS011;3158;52.148;11.568;2023-02-15T23:28:42;19.02;;;8.25;;
6249;SDS011;3158;52.148;11.568;2023-02-15T23:33:43;17.02;;;7.97;;
6249;SDS011;3158;52.148;11.568;2023-02-15T23:38:45;13.93;;;7.72;;
6249;SDS011;3158;52.148;11.568;2023-02-15T23:43:48;16.98;;;7.53;;
6249;SDS011;3158;52.148;11.568;2023-02-15T23:48:50;12.98;;;7.97;;
6249;SDS011;3158;52.148;11.568;2023-02-15T23:53:52;16.40;;;7.82;;
6249;SDS011;3158;52.148;11.568;2023-02-15T23:58:53;15.57;;;7.88;;
